createdAt,value
2023-07-02T00:00:15.241Z,72.43
2023-07-02T00:02:43.049Z,66.78
2023-07-02T00:05:10.595Z,66.30
2023-07-02T00:07:38.792Z,64.40
2023-07-02T00:10:06.931Z,73.30
2023-07-02T00:12:34.660Z,62.25
2023-07-02T00:15:04.917Z,66.63
2023-07-02T00:17:32.481Z,77.93
2023-07-02T00:22:47.662Z,65.25
2023-07-02T00:25:15.636Z,52.33
2023-07-02T00:27:43.758Z,58.90
2023-07-02T00:30:15.040Z,72.35
2023-07-02T00:32:42.586Z,79.05
2023-07-02T00:35:10.167Z,78.55
2023-07-02T00:37:38.346Z,71.43
2023-07-02T00:40:10.262Z,69.85
2023-07-02T00:42:37.961Z,64.80
2023-07-02T00:45:06.303Z,65.22
2023-07-02T00:47:37.509Z,60.38
2023-07-02T00:50:06.977Z,78.72
2023-07-02T00:52:34.575Z,67.28
2023-07-02T00:55:03.095Z,62.40
2023-07-02T00:57:31.382Z,56.60
2023-07-02T01:00:02.108Z,59.92
2023-07-02T01:02:31.246Z,66.35
2023-07-02T01:05:01.384Z,66.53
2023-07-02T01:07:30.073Z,65.20
2023-07-02T01:09:57.894Z,60.75
2023-07-02T01:12:26.086Z,88.00
2023-07-02T01:14:55.777Z,52.65
2023-07-02T01:17:25.220Z,65.68
2023-07-02T01:20:00.407Z,61.05
2023-07-02T01:22:32.083Z,66.65
2023-07-02T01:25:00.276Z,70.50
2023-07-02T01:27:31.020Z,76.03
2023-07-02T01:29:59.698Z,63.17
2023-07-02T01:32:27.501Z,69.38
2023-07-02T01:35:03.311Z,62.67
2023-07-02T01:37:38.291Z,89.50
2023-07-02T01:40:09.189Z,71.03
2023-07-02T01:42:38.272Z,58.92
2023-07-02T01:45:13.131Z,74.72
2023-07-02T01:50:22.672Z,69.00
2023-07-02T01:52:50.309Z,82.63
2023-07-02T01:55:22.933Z,72.93
2023-07-02T01:57:50.490Z,61.05
2023-07-02T02:00:18.915Z,62.97
2023-07-02T02:02:46.390Z,59.60
2023-07-02T02:05:14.121Z,64.68
2023-07-02T02:07:42.106Z,59.03
2023-07-02T02:10:12.431Z,56.58
2023-07-02T02:12:39.958Z,56.10
2023-07-02T02:15:08.542Z,63.05
2023-07-02T02:17:41.868Z,74.80
2023-07-02T02:20:12.857Z,61.35
2023-07-02T02:22:41.055Z,61.40
2023-07-02T02:25:12.222Z,71.90
2023-07-02T02:27:44.504Z,67.38
2023-07-02T02:30:18.607Z,68.85
2023-07-02T02:32:51.485Z,69.60
2023-07-02T02:36:11.469Z,80.53
2023-07-02T02:38:55.298Z,57.05
2023-07-02T02:41:27.858Z,66.38
2023-07-02T02:43:55.819Z,67.43
2023-07-02T02:47:42.753Z,72.18
2023-07-02T02:49:46.501Z,60.40
2023-07-02T02:52:20.218Z,62.67
2023-07-02T02:54:48.667Z,52.67
2023-07-02T02:57:22.517Z,53.92
2023-07-02T02:59:50.393Z,61.92
2023-07-02T03:02:18.282Z,63.38
2023-07-02T03:04:46.609Z,72.18
2023-07-02T03:07:30.523Z,56.22
2023-07-02T03:10:51.442Z,63.10
2023-07-02T03:13:23.124Z,66.45
2023-07-02T03:15:57.347Z,73.72
2023-07-02T03:18:25.297Z,63.65
2023-07-02T03:20:53.300Z,68.85
2023-07-02T03:23:21.046Z,57.05
2023-07-02T03:25:48.863Z,73.05
2023-07-02T03:28:26.009Z,57.45
2023-07-02T03:34:05.227Z,57.75
2023-07-02T03:36:36.933Z,61.15
2023-07-02T03:39:11.010Z,64.03
2023-07-02T03:41:38.756Z,58.97
2023-07-02T03:44:08.559Z,62.40
2023-07-02T03:50:19.192Z,61.95
2023-07-02T03:52:53.611Z,58.50
2023-07-02T03:55:26.646Z,60.22
2023-07-02T03:57:57.267Z,64.47
2023-07-02T04:00:34.066Z,61.92
2023-07-02T04:03:05.352Z,53.30
2023-07-02T04:05:33.234Z,71.18
2023-07-02T04:08:34.196Z,58.70
2023-07-02T04:11:02.864Z,73.93
2023-07-02T04:13:33.843Z,50.55
2023-07-02T04:16:07.830Z,62.83
2023-07-02T04:18:35.980Z,57.70
2023-07-02T04:21:16.500Z,58.45
2023-07-02T04:23:53.753Z,54.28
2023-07-02T04:26:47.943Z,59.08
2023-07-02T04:29:17.642Z,69.65
2023-07-02T04:31:45.557Z,61.35
2023-07-02T04:34:37.733Z,63.20
2023-07-02T04:37:10.597Z,43.95
2023-07-02T04:39:58.256Z,52.72
2023-07-02T04:45:37.781Z,55.25
2023-07-02T04:48:07.241Z,48.60
2023-07-02T04:50:52.761Z,59.50
2023-07-02T04:53:23.942Z,75.28
2023-07-02T04:55:54.290Z,61.67
2023-07-02T04:58:22.444Z,66.43
2023-07-02T05:00:57.795Z,54.35
2023-07-02T05:03:32.780Z,57.55
2023-07-02T05:06:09.499Z,49.63
2023-07-02T05:08:42.073Z,68.43
2023-07-02T05:11:23.462Z,56.72
2023-07-02T05:13:51.148Z,50.13
2023-07-02T05:16:58.477Z,60.60
2023-07-02T05:19:26.404Z,52.42
2023-07-02T05:21:54.284Z,50.20
2023-07-02T05:24:22.105Z,55.53
2023-07-02T05:26:51.719Z,60.60
2023-07-02T05:29:19.984Z,61.33
2023-07-02T05:31:48.176Z,47.20
2023-07-02T05:34:16.776Z,51.83
2023-07-02T05:36:44.334Z,59.95
2023-07-02T05:39:12.037Z,55.75
2023-07-02T05:44:54.492Z,48.45
2023-07-02T05:47:42.700Z,53.03
2023-07-02T05:51:20.232Z,46.03
2023-07-02T05:53:28.979Z,51.78
2023-07-02T05:56:02.064Z,44.58
2023-07-02T05:58:50.943Z,46.13
2023-07-02T06:01:19.935Z,50.67
2023-07-02T06:03:57.295Z,40.45
2023-07-02T06:09:17.889Z,50.72
2023-07-02T06:12:08.191Z,54.13
2023-07-02T06:14:49.267Z,45.72
2023-07-02T06:17:17.055Z,37.50
2023-07-02T06:19:50.351Z,47.95
2023-07-02T06:22:30.069Z,42.55
2023-07-02T06:26:13.607Z,51.45
2023-07-02T06:27:59.429Z,46.38
2023-07-02T06:30:27.477Z,42.45
2023-07-02T06:33:02.120Z,36.60
2023-07-02T06:36:01.888Z,50.40
2023-07-02T06:38:41.062Z,39.50
2023-07-02T06:41:09.100Z,36.97
2023-07-02T06:43:37.007Z,33.03
2023-07-02T06:46:07.813Z,34.10
2023-07-02T06:48:37.982Z,39.75
2023-07-02T06:51:08.784Z,34.30
2023-07-02T06:53:39.680Z,35.20
2023-07-02T06:56:10.545Z,31.52
2023-07-02T06:58:38.852Z,39.72
2023-07-02T07:01:06.655Z,40.97
2023-07-02T07:03:34.417Z,23.45
2023-07-02T07:06:01.865Z,28.17
2023-07-02T07:08:29.900Z,35.63
2023-07-02T07:10:57.369Z,36.38
2023-07-02T07:13:24.976Z,26.30
2023-07-02T07:15:52.534Z,25.60
2023-07-02T07:18:20.276Z,26.60
2023-07-02T07:20:48.458Z,37.03
2023-07-02T07:23:18.529Z,25.08
2023-07-02T07:25:46.661Z,33.50
2023-07-02T07:28:17.895Z,28.73
2023-07-02T07:30:48.842Z,30.35
2023-07-02T07:33:16.715Z,43.97
2023-07-02T07:35:44.423Z,32.33
2023-07-02T07:38:13.871Z,26.27
2023-07-02T07:40:41.434Z,24.70
2023-07-02T07:43:08.935Z,31.25
2023-07-02T07:45:36.599Z,23.13
2023-07-02T07:48:05.035Z,29.30
2023-07-02T07:50:33.082Z,26.77
2023-07-02T07:53:00.875Z,33.08
2023-07-02T07:55:28.592Z,23.15
2023-07-02T07:57:55.970Z,33.10
2023-07-02T08:00:25.511Z,19.67
2023-07-02T08:02:56.880Z,16.90
2023-07-02T08:05:24.416Z,38.35
2023-07-02T08:07:51.867Z,37.88
2023-07-02T08:10:19.378Z,28.13
2023-07-02T08:12:52.273Z,21.55
2023-07-02T08:15:20.642Z,22.20
2023-07-02T08:17:48.314Z,23.48
2023-07-02T08:20:18.235Z,19.95
2023-07-02T08:22:46.085Z,23.20
2023-07-02T08:25:13.401Z,24.25
2023-07-02T08:27:40.791Z,11.27
2023-07-02T08:30:08.668Z,22.65
2023-07-02T08:32:36.484Z,25.88
2023-07-02T08:35:04.292Z,17.58
2023-07-02T08:37:31.815Z,22.33
2023-07-02T08:39:59.334Z,23.42
2023-07-02T08:42:30.517Z,24.10
2023-07-02T08:45:08.465Z,16.60
2023-07-02T08:47:35.951Z,11.77
2023-07-02T08:50:06.044Z,25.55
2023-07-02T08:52:33.701Z,19.17
2023-07-02T08:55:01.127Z,22.90
2023-07-02T08:57:28.692Z,30.25
2023-07-02T08:59:56.038Z,19.13
2023-07-02T09:02:35.736Z,10.30
2023-07-02T09:05:04.812Z,17.63
2023-07-02T09:07:32.784Z,21.27
2023-07-02T09:10:00.507Z,13.77
2023-07-02T09:12:29.502Z,23.05
2023-07-02T09:15:03.996Z,15.38
2023-07-02T09:17:39.108Z,14.68
2023-07-02T09:20:11.366Z,18.38
2023-07-02T09:22:40.096Z,12.85
2023-07-02T09:25:08.167Z,16.35
2023-07-02T09:27:43.198Z,22.98
2023-07-02T09:30:19.882Z,21.42
2023-07-02T09:32:47.672Z,19.77
2023-07-02T09:35:15.796Z,28.17
2023-07-02T09:37:45.166Z,22.13
2023-07-02T09:40:13.023Z,20.50
2023-07-02T09:42:42.049Z,15.00
2023-07-02T09:45:11.536Z,15.48
2023-07-02T09:47:48.573Z,19.38
2023-07-02T09:50:19.157Z,14.73
2023-07-02T09:52:47.678Z,15.90
2023-07-02T09:55:16.166Z,17.60
2023-07-02T09:57:44.996Z,45.67
2023-07-02T10:00:13.758Z,23.52
2023-07-02T10:02:41.538Z,8.98
2023-07-02T10:05:09.294Z,18.15
2023-07-02T10:07:36.883Z,14.18
2023-07-02T10:10:07.611Z,24.40
2023-07-02T10:12:35.164Z,19.30
2023-07-02T10:15:02.609Z,16.73
2023-07-02T10:17:34.425Z,9.98
2023-07-02T10:20:12.668Z,16.85
2023-07-02T10:22:54.493Z,14.27
2023-07-02T10:25:34.974Z,13.00
2023-07-02T10:28:03.365Z,25.35
2023-07-02T10:30:35.689Z,22.30
2023-07-02T10:33:13.048Z,19.73
2023-07-02T10:35:43.432Z,19.05
2023-07-02T10:38:16.965Z,20.23
2023-07-02T10:40:45.062Z,20.50
2023-07-02T10:43:12.928Z,12.52
2023-07-02T10:45:40.719Z,20.13
2023-07-02T10:48:11.754Z,18.63
2023-07-02T10:50:39.199Z,20.02
2023-07-02T10:53:06.716Z,12.30
2023-07-02T10:55:34.026Z,19.45
2023-07-02T10:58:09.151Z,26.00
2023-07-02T11:00:52.780Z,15.30
2023-07-02T11:03:21.993Z,12.90
2023-07-02T11:05:51.048Z,21.75
2023-07-02T11:08:35.260Z,17.10
2023-07-02T11:11:11.561Z,10.70
2023-07-02T11:13:52.691Z,14.07
2023-07-02T11:16:27.059Z,13.40
2023-07-02T11:19:07.859Z,9.70
2023-07-02T11:21:36.165Z,13.23
2023-07-02T11:24:10.043Z,19.10
2023-07-02T11:26:42.069Z,16.50
2023-07-02T11:29:12.980Z,17.42
2023-07-02T11:31:40.455Z,18.20
2023-07-02T11:34:25.255Z,22.15
2023-07-02T11:36:55.226Z,19.40
2023-07-02T11:39:25.209Z,16.90
2023-07-02T11:41:54.339Z,15.68
2023-07-02T11:44:21.725Z,11.85
2023-07-02T11:46:50.839Z,11.70
2023-07-02T11:49:18.401Z,15.25
2023-07-02T11:51:49.438Z,10.05
2023-07-02T11:54:17.560Z,17.55
2023-07-02T11:56:45.500Z,14.40
2023-07-02T11:59:12.935Z,20.58
2023-07-02T12:01:40.861Z,22.10
2023-07-02T12:04:13.026Z,17.33
2023-07-02T12:06:40.722Z,16.13
2023-07-02T12:09:08.212Z,6.95
2023-07-02T12:11:35.600Z,8.10
2023-07-02T12:14:03.014Z,11.98
2023-07-02T12:16:30.370Z,13.68
2023-07-02T12:18:57.785Z,14.38
2023-07-02T12:21:25.231Z,16.40
2023-07-02T12:23:52.559Z,25.30
2023-07-02T12:26:20.039Z,22.40
2023-07-02T12:28:47.438Z,11.45
2023-07-02T12:31:15.106Z,17.88
2023-07-02T12:33:42.602Z,23.77
2023-07-02T12:36:10.155Z,18.55
2023-07-02T12:38:37.534Z,15.38
2023-07-02T12:41:04.946Z,9.43
2023-07-02T12:43:32.479Z,20.67
2023-07-02T12:45:59.767Z,17.42
2023-07-02T12:48:27.080Z,14.15
2023-07-02T12:50:55.867Z,12.75
2023-07-02T12:53:23.908Z,14.48
2023-07-02T12:55:51.655Z,11.77
2023-07-02T12:58:19.592Z,11.05
2023-07-02T13:00:47.962Z,15.50
2023-07-02T13:03:16.996Z,6.63
2023-07-02T13:05:45.870Z,15.73
2023-07-02T13:08:13.188Z,13.45
2023-07-02T13:10:42.790Z,14.15
2023-07-02T13:13:22.167Z,11.00
2023-07-02T13:15:51.041Z,8.73
2023-07-02T13:18:18.967Z,9.98
2023-07-02T13:20:46.407Z,13.10
2023-07-02T13:23:13.882Z,16.00
2023-07-02T13:25:41.253Z,9.52
2023-07-02T13:28:08.665Z,19.83
2023-07-02T13:30:35.998Z,15.13
2023-07-02T13:33:03.439Z,17.15
2023-07-02T13:35:30.767Z,17.38
2023-07-02T13:38:00.392Z,21.23
2023-07-02T13:40:27.989Z,11.50
2023-07-02T13:42:55.334Z,16.98
2023-07-02T13:45:23.006Z,9.63
2023-07-02T13:47:50.414Z,17.23
2023-07-02T13:50:18.134Z,15.75
2023-07-02T13:52:47.476Z,19.50
2023-07-02T13:55:14.951Z,19.33
2023-07-02T13:57:42.495Z,12.88
2023-07-02T14:00:10.619Z,13.43
2023-07-02T14:02:38.185Z,19.08
2023-07-02T14:05:06.059Z,16.95
2023-07-02T14:07:33.397Z,24.30
2023-07-02T14:10:00.807Z,21.17
2023-07-02T14:12:28.580Z,9.43
2023-07-02T14:14:55.895Z,15.73
2023-07-02T14:17:26.002Z,13.07
2023-07-02T14:19:54.315Z,16.15
2023-07-02T14:22:21.816Z,13.05
2023-07-02T14:24:49.173Z,16.20
2023-07-02T14:27:16.551Z,15.77
2023-07-02T14:29:44.326Z,17.05
2023-07-02T14:32:11.854Z,20.20
2023-07-02T14:34:39.296Z,18.83
2023-07-02T14:37:06.994Z,14.38
2023-07-02T14:39:34.432Z,20.77
2023-07-02T14:42:01.778Z,27.95
2023-07-02T14:44:29.064Z,21.70
2023-07-02T14:46:56.513Z,9.00
2023-07-02T14:49:23.945Z,20.83
2023-07-02T14:51:51.348Z,19.50
2023-07-02T14:54:19.073Z,24.40
2023-07-02T14:56:46.487Z,25.35
2023-07-02T14:59:15.188Z,23.17
2023-07-02T15:01:42.703Z,17.38
2023-07-02T15:04:10.376Z,15.60
2023-07-02T15:06:38.762Z,27.17
2023-07-02T15:09:06.239Z,22.65
2023-07-02T15:11:33.699Z,13.27
2023-07-02T15:14:01.880Z,17.60
2023-07-02T15:16:29.234Z,16.33
2023-07-02T15:18:56.554Z,16.90
2023-07-02T15:21:25.601Z,11.95
2023-07-02T15:23:52.920Z,22.83
2023-07-02T15:26:20.542Z,19.50
2023-07-02T15:28:48.029Z,24.60
2023-07-02T15:31:16.024Z,14.32
2023-07-02T15:33:45.263Z,15.55
2023-07-02T15:36:14.920Z,19.83
2023-07-02T15:38:42.410Z,13.23
2023-07-02T15:41:16.200Z,14.43
2023-07-02T15:43:45.792Z,21.88
2023-07-02T15:46:18.005Z,14.25
2023-07-02T15:48:45.806Z,19.95
2023-07-02T15:51:13.414Z,12.77
2023-07-02T15:53:43.133Z,16.55
2023-07-02T15:56:11.035Z,11.63
2023-07-02T15:58:38.378Z,15.82
2023-07-02T16:01:19.812Z,15.38
2023-07-02T16:03:47.434Z,18.48
2023-07-02T16:06:15.581Z,11.98
2023-07-02T16:08:44.525Z,15.68
2023-07-02T16:11:14.054Z,18.98
2023-07-02T16:13:43.480Z,5.45
2023-07-02T16:16:11.305Z,13.60
2023-07-02T16:18:38.852Z,16.75
2023-07-02T16:21:06.656Z,16.20
2023-07-02T16:23:34.850Z,11.95
2023-07-02T16:26:05.723Z,11.40
2023-07-02T16:28:34.901Z,13.60
2023-07-02T16:31:03.012Z,10.95
2023-07-02T16:33:34.822Z,16.55
2023-07-02T16:36:06.365Z,16.15
2023-07-02T16:38:34.137Z,25.33
2023-07-02T16:41:01.648Z,15.10
2023-07-02T16:43:29.261Z,23.27
2023-07-02T16:46:00.161Z,16.00
2023-07-02T16:48:27.624Z,17.25
2023-07-02T16:51:03.665Z,13.40
2023-07-02T16:53:31.337Z,16.20
2023-07-02T16:56:01.982Z,15.15
2023-07-02T16:58:30.609Z,17.85
2023-07-02T17:01:03.945Z,12.55
2023-07-02T17:03:31.757Z,16.95
2023-07-02T17:06:03.928Z,9.88
2023-07-02T17:08:38.531Z,10.10
2023-07-02T17:11:07.502Z,19.98
2023-07-02T17:13:35.599Z,18.20
2023-07-02T17:16:05.235Z,14.05
2023-07-02T17:18:33.967Z,17.35
2023-07-02T17:21:01.946Z,22.90
2023-07-02T17:23:29.594Z,11.95
2023-07-02T17:26:02.475Z,13.50
2023-07-02T17:28:30.763Z,10.45
2023-07-02T17:30:59.193Z,16.90
2023-07-02T17:33:27.200Z,22.65
2023-07-02T17:35:54.639Z,15.27
2023-07-02T17:38:22.374Z,12.43
2023-07-02T17:40:49.692Z,11.70
2023-07-02T17:43:17.127Z,13.45
2023-07-02T17:45:57.079Z,10.35
2023-07-02T17:48:27.092Z,24.63
2023-07-02T17:50:59.913Z,18.45
2023-07-02T17:53:30.204Z,14.15
2023-07-02T17:55:58.213Z,17.45
2023-07-02T17:58:25.606Z,18.95
2023-07-02T18:00:53.161Z,15.63
2023-07-02T18:03:21.173Z,17.55
2023-07-02T18:05:49.694Z,15.23
2023-07-02T18:08:17.957Z,17.60
2023-07-02T18:10:50.978Z,15.05
2023-07-02T18:13:18.887Z,16.00
2023-07-02T18:15:47.396Z,16.38
2023-07-02T18:18:15.154Z,14.63
2023-07-02T18:20:43.556Z,13.82
2023-07-02T18:23:11.625Z,14.60
2023-07-02T18:25:39.407Z,25.88
2023-07-02T18:28:12.797Z,11.88
2023-07-02T18:30:51.468Z,19.60
2023-07-02T18:33:20.104Z,7.13
2023-07-02T18:35:47.857Z,14.40
2023-07-02T18:38:19.469Z,8.73
2023-07-02T18:40:46.919Z,13.25
2023-07-02T18:43:14.591Z,12.43
2023-07-02T18:45:42.022Z,8.63
2023-07-02T18:48:09.988Z,18.52
2023-07-02T18:50:38.025Z,15.57
2023-07-02T18:53:10.511Z,13.27
2023-07-02T18:55:38.258Z,8.63
2023-07-02T18:58:05.803Z,13.85
2023-07-02T19:00:33.152Z,12.48
2023-07-02T19:03:01.035Z,14.15
2023-07-02T19:05:29.238Z,6.72
2023-07-02T19:07:56.627Z,11.35
2023-07-02T19:10:24.034Z,10.05
2023-07-02T19:12:51.529Z,8.00
2023-07-02T19:15:22.664Z,9.10
2023-07-02T19:17:50.146Z,10.38
2023-07-02T19:20:19.918Z,13.60
2023-07-02T19:22:51.555Z,10.88
2023-07-02T19:25:19.428Z,14.50
2023-07-02T19:27:46.987Z,13.43
2023-07-02T19:30:14.917Z,8.88
2023-07-02T19:32:43.110Z,7.38
2023-07-02T19:35:12.259Z,13.98
2023-07-02T19:37:39.691Z,11.27
2023-07-02T19:40:11.008Z,24.95
2023-07-02T19:42:38.785Z,10.90
2023-07-02T19:45:07.226Z,17.88
2023-07-02T19:47:35.699Z,13.15
2023-07-02T19:50:03.757Z,14.75
2023-07-02T19:52:34.335Z,11.40
2023-07-02T19:55:08.814Z,17.85
2023-07-02T19:57:37.208Z,15.45
2023-07-02T20:00:09.578Z,12.05
2023-07-02T20:02:40.151Z,9.57
2023-07-02T20:05:11.407Z,14.43
2023-07-02T20:07:39.908Z,23.88
2023-07-02T20:10:10.407Z,13.57
2023-07-02T20:12:38.095Z,16.00
2023-07-02T20:15:12.939Z,17.17
2023-07-02T20:17:42.435Z,17.13
2023-07-02T20:20:10.777Z,17.42
2023-07-02T20:22:50.165Z,16.73
2023-07-02T20:25:48.684Z,13.77
2023-07-02T20:28:11.036Z,18.98
2023-07-02T20:30:41.432Z,13.18
2023-07-02T20:33:08.888Z,13.65
2023-07-02T20:35:42.991Z,14.55
2023-07-02T20:38:12.516Z,17.63
2023-07-02T20:40:41.370Z,14.93
2023-07-02T20:43:15.572Z,22.20
2023-07-02T20:45:46.428Z,10.52
2023-07-02T20:48:19.165Z,18.63
2023-07-02T20:50:47.255Z,13.10
2023-07-02T20:53:23.002Z,24.73
2023-07-02T20:55:59.604Z,15.95
2023-07-02T20:58:27.445Z,14.43
2023-07-02T21:01:07.803Z,16.08
2023-07-02T21:03:38.800Z,21.02
2023-07-02T21:06:10.968Z,12.68
2023-07-02T21:08:38.728Z,12.27
2023-07-02T21:11:23.820Z,13.65
2023-07-02T21:13:57.021Z,24.38
2023-07-02T21:16:29.318Z,24.08
2023-07-02T21:19:03.994Z,13.52
2023-07-02T21:21:37.072Z,14.68
2023-07-02T21:24:06.179Z,16.30
2023-07-02T21:26:33.696Z,15.13
2023-07-02T21:29:04.671Z,13.70
2023-07-02T21:31:32.426Z,14.38
2023-07-02T21:34:06.356Z,23.98
2023-07-02T21:36:36.360Z,21.67
2023-07-02T21:39:04.329Z,13.02
2023-07-02T21:41:32.110Z,15.80
2023-07-02T21:44:02.839Z,12.82
2023-07-02T21:46:39.530Z,18.05
2023-07-02T21:49:08.343Z,24.60
2023-07-02T21:51:52.584Z,17.70
2023-07-02T21:54:30.621Z,22.52
2023-07-02T21:57:01.294Z,16.67
2023-07-02T21:59:29.343Z,19.80
2023-07-02T22:01:57.990Z,16.63
2023-07-02T22:04:25.692Z,16.98
2023-07-02T22:06:53.371Z,19.52
2023-07-02T22:09:21.464Z,23.70
2023-07-02T22:11:49.391Z,11.35
2023-07-02T22:14:28.669Z,14.20
2023-07-02T22:17:00.174Z,15.43
2023-07-02T22:19:32.901Z,27.02
2023-07-02T22:22:01.791Z,27.00
2023-07-02T22:24:32.601Z,18.50
2023-07-02T22:27:00.150Z,22.25
2023-07-02T22:29:32.909Z,14.35
2023-07-02T22:32:00.354Z,22.50
2023-07-02T22:34:28.205Z,26.80
2023-07-02T22:36:58.560Z,10.85
2023-07-02T22:39:26.634Z,15.18
2023-07-02T22:41:54.892Z,20.95
2023-07-02T22:44:49.251Z,30.02
2023-07-02T22:47:25.932Z,20.90
2023-07-02T22:49:56.713Z,22.48
2023-07-02T22:52:26.037Z,23.30
2023-07-02T22:54:57.614Z,28.10
2023-07-02T22:57:32.237Z,25.17
2023-07-02T23:00:02.659Z,25.00
2023-07-02T23:02:30.275Z,18.88
2023-07-02T23:05:03.472Z,20.75
2023-07-02T23:07:31.647Z,32.10
2023-07-02T23:10:04.081Z,23.25
2023-07-02T23:12:34.012Z,31.27
2023-07-02T23:15:15.071Z,17.83
2023-07-02T23:17:54.419Z,13.63
2023-07-02T23:20:25.645Z,11.30
2023-07-02T23:22:53.732Z,19.52
2023-07-02T23:25:30.745Z,23.15
2023-07-02T23:28:06.579Z,13.27
2023-07-02T23:30:39.719Z,22.23
2023-07-02T23:33:11.738Z,20.35
2023-07-02T23:35:44.770Z,13.45
2023-07-02T23:38:15.237Z,10.77
2023-07-02T23:40:51.285Z,20.52
2023-07-02T23:43:35.003Z,30.25
2023-07-02T23:46:14.995Z,22.75
2023-07-02T23:48:49.335Z,27.42
2023-07-02T23:51:26.237Z,27.30
2023-07-02T23:54:00.351Z,28.73
2023-07-02T23:56:31.555Z,22.98
2023-07-02T23:59:02.195Z,17.73
